createdAt,value
2022-11-20T00:01:59.546Z,12.47
2022-11-20T00:05:11.543Z,10.47
2022-11-20T00:08:11.623Z,12.37
2022-11-20T00:11:38.541Z,12.80
2022-11-20T00:14:55.503Z,11.30
2022-11-20T00:18:10.540Z,10.57
2022-11-20T00:21:25.537Z,12.80
2022-11-20T00:24:42.737Z,12.63
2022-11-20T00:27:37.590Z,13.10
2022-11-20T00:31:03.656Z,10.83
2022-11-20T00:34:03.709Z,9.97
2022-11-20T00:37:16.650Z,14.80
2022-11-20T00:40:17.731Z,14.85
2022-11-20T00:43:32.686Z,10.70
2022-11-20T00:46:45.632Z,11.25
2022-11-20T00:49:57.858Z,11.03
2022-11-20T00:52:57.685Z,9.47
2022-11-20T00:56:21.673Z,11.80
2022-11-20T00:59:34.704Z,12.23
2022-11-20T01:03:01.776Z,10.10
2022-11-20T01:06:01.774Z,12.63
2022-11-20T01:09:25.669Z,10.53
2022-11-20T01:12:25.719Z,12.07
2022-11-20T01:15:37.757Z,11.40
2022-11-20T01:18:51.730Z,11.13
2022-11-20T01:22:15.709Z,12.30
2022-11-20T01:25:27.966Z,9.80
2022-11-20T01:28:39.714Z,10.67
2022-11-20T01:31:54.758Z,9.23
2022-11-20T01:35:20.853Z,10.07
2022-11-20T01:38:20.840Z,8.80
2022-11-20T01:41:50.443Z,10.75
2022-11-20T01:45:07.940Z,12.35
2022-11-20T01:48:32.868Z,10.17
2022-11-20T01:51:47.802Z,10.70
2022-11-20T01:55:11.821Z,10.40
2022-11-20T01:58:23.921Z,13.45
2022-11-20T02:01:47.908Z,11.10
2022-11-20T02:05:11.888Z,9.83
2022-11-20T02:08:25.855Z,10.27
2022-11-20T02:11:38.932Z,10.50
2022-11-20T02:14:38.116Z,10.07
2022-11-20T02:18:04.904Z,8.87
2022-11-20T02:21:16.990Z,8.20
2022-11-20T02:24:43.935Z,9.50
2022-11-20T02:27:55.976Z,9.15
2022-11-20T02:31:08.023Z,8.97
2022-11-20T02:34:20.977Z,8.47
2022-11-20T02:37:44.999Z,8.90
2022-11-20T02:40:59.030Z,7.45
2022-11-20T02:44:12.050Z,10.30
2022-11-20T02:47:23.992Z,8.23
2022-11-20T02:50:36.082Z,8.07
2022-11-20T02:53:36.025Z,7.63
2022-11-20T02:57:02.075Z,9.53
2022-11-20T03:00:14.112Z,9.27
2022-11-20T03:03:29.062Z,9.63
2022-11-20T03:06:41.129Z,10.70
2022-11-20T03:09:53.124Z,8.87
2022-11-20T03:13:06.103Z,10.70
2022-11-20T03:16:35.133Z,8.87
2022-11-20T03:19:47.121Z,8.00
2022-11-20T03:22:59.098Z,8.95
2022-11-20T03:26:00.124Z,7.30
2022-11-20T03:29:25.197Z,9.07
2022-11-20T03:32:25.223Z,7.10
2022-11-20T03:35:37.264Z,9.13
2022-11-20T03:38:37.142Z,8.43
2022-11-20T03:42:01.220Z,8.80
2022-11-20T03:45:15.177Z,8.95
2022-11-20T03:48:27.186Z,7.43
2022-11-20T03:51:39.258Z,8.60
2022-11-20T03:54:52.291Z,8.53
2022-11-20T03:57:52.216Z,7.10
2022-11-20T04:01:19.296Z,7.80
2022-11-20T04:04:32.298Z,8.20
2022-11-20T04:07:32.500Z,7.35
2022-11-20T04:10:44.266Z,6.07
2022-11-20T04:13:47.383Z,8.43
2022-11-20T04:17:13.306Z,8.60
2022-11-20T04:20:13.341Z,6.65
2022-11-20T04:23:28.865Z,10.60
2022-11-20T04:26:38.369Z,7.30
2022-11-20T04:29:50.316Z,7.57
2022-11-20T04:33:04.400Z,6.80
2022-11-20T04:36:28.283Z,6.97
2022-11-20T04:39:40.353Z,9.00
2022-11-20T04:42:54.350Z,6.45
2022-11-20T04:45:54.440Z,7.10
2022-11-20T04:49:20.650Z,7.20
2022-11-20T04:52:23.386Z,7.37
2022-11-20T04:55:35.395Z,6.47
2022-11-20T04:58:47.497Z,5.87
2022-11-20T05:01:59.451Z,6.45
2022-11-20T05:05:13.417Z,7.00
2022-11-20T05:08:26.495Z,7.93
2022-11-20T05:11:38.543Z,6.67
2022-11-20T05:14:52.595Z,6.63
2022-11-20T05:17:52.444Z,7.77
2022-11-20T05:21:21.452Z,6.15
2022-11-20T05:24:21.492Z,6.75
2022-11-20T05:27:33.514Z,6.50
2022-11-20T05:30:33.513Z,7.03
2022-11-20T05:33:58.566Z,6.97
2022-11-20T05:37:12.576Z,7.33
2022-11-20T05:40:27.508Z,6.40
2022-11-20T05:43:30.594Z,5.55
2022-11-20T05:46:43.588Z,6.05
2022-11-20T05:49:43.604Z,6.40
2022-11-20T05:53:13.556Z,6.30
2022-11-20T05:56:25.629Z,6.60
2022-11-20T05:59:37.668Z,7.70
2022-11-20T06:02:37.673Z,5.90
2022-11-20T06:05:49.669Z,6.90
2022-11-20T06:09:03.574Z,5.13
2022-11-20T06:12:15.694Z,6.47
2022-11-20T06:15:19.651Z,9.10
2022-11-20T06:18:43.689Z,6.57
2022-11-20T06:21:43.679Z,6.55
2022-11-20T06:25:09.670Z,7.95
2022-11-20T06:28:09.741Z,7.03
2022-11-20T06:31:33.703Z,6.17
2022-11-20T06:34:33.747Z,7.63
2022-11-20T06:37:45.709Z,6.67
2022-11-20T06:40:59.724Z,6.65
2022-11-20T06:44:11.720Z,8.13
2022-11-20T06:47:11.759Z,7.15
2022-11-20T06:50:23.700Z,7.17
2022-11-20T06:53:23.788Z,7.50
2022-11-20T06:56:48.887Z,7.13
2022-11-20T06:59:48.828Z,7.27
2022-11-20T07:03:00.837Z,7.40
2022-11-20T07:06:00.823Z,8.15
2022-11-20T07:09:13.087Z,8.20
2022-11-20T07:12:26.851Z,7.00
2022-11-20T07:15:50.825Z,8.60
2022-11-20T07:18:51.282Z,7.30
2022-11-20T07:22:02.858Z,7.83
2022-11-20T07:25:02.819Z,8.43
2022-11-20T07:28:29.945Z,10.10
2022-11-20T07:31:30.069Z,7.27
2022-11-20T07:34:41.867Z,6.07
2022-11-20T07:37:41.930Z,6.40
2022-11-20T07:41:09.881Z,6.60
2022-11-20T07:44:23.923Z,7.95
2022-11-20T07:47:35.885Z,6.70
2022-11-20T07:50:35.918Z,8.90
2022-11-20T07:53:47.974Z,6.93
2022-11-20T07:56:47.924Z,6.83
2022-11-20T08:00:13.989Z,7.30
2022-11-20T08:03:25.977Z,6.80
2022-11-20T08:06:26.047Z,8.15
2022-11-20T08:09:39.035Z,6.43
2022-11-20T08:12:44.570Z,7.70
2022-11-20T08:16:12.036Z,6.70
2022-11-20T08:19:12.094Z,9.47
2022-11-20T08:22:25.074Z,6.60
2022-11-20T08:25:25.001Z,8.67
2022-11-20T08:28:38.115Z,6.55
2022-11-20T08:31:52.060Z,8.33
2022-11-20T08:35:04.065Z,6.17
2022-11-20T08:38:04.047Z,7.80
2022-11-20T08:41:41.147Z,7.67
2022-11-20T08:44:41.100Z,7.85
2022-11-20T08:48:12.089Z,6.90
2022-11-20T08:51:24.139Z,7.13
2022-11-20T08:54:36.213Z,7.70
2022-11-20T08:57:50.848Z,7.33
2022-11-20T09:00:49.135Z,8.07
2022-11-20T09:04:03.251Z,8.17
2022-11-20T09:07:15.313Z,7.53
2022-11-20T09:10:30.442Z,6.13
2022-11-20T09:13:27.230Z,7.37
2022-11-20T09:16:27.234Z,7.30
2022-11-20T09:19:53.367Z,8.20
2022-11-20T09:23:05.225Z,7.87
2022-11-20T09:26:32.232Z,7.65
2022-11-20T09:29:36.275Z,7.85
2022-11-20T09:32:50.407Z,7.50
2022-11-20T09:36:04.313Z,7.30
2022-11-20T09:39:16.378Z,6.90
2022-11-20T09:42:32.281Z,10.43
2022-11-20T09:46:01.353Z,7.13
2022-11-20T09:49:31.932Z,7.67
2022-11-20T09:52:52.338Z,7.35
2022-11-20T09:56:07.312Z,6.73
2022-11-20T09:59:31.310Z,8.87
2022-11-20T10:02:43.336Z,7.50
2022-11-20T10:06:10.470Z,9.40
2022-11-20T10:09:26.372Z,10.67
2022-11-20T10:12:51.417Z,7.20
2022-11-20T10:16:03.403Z,8.03
2022-11-20T10:19:29.472Z,9.05
2022-11-20T10:22:43.373Z,8.83
2022-11-20T10:26:09.439Z,7.63
2022-11-20T10:29:25.615Z,8.20
2022-11-20T10:32:49.461Z,9.50
2022-11-20T10:36:01.442Z,7.43
2022-11-20T10:39:25.466Z,10.97
2022-11-20T10:42:39.466Z,7.10
2022-11-20T10:46:05.482Z,7.50
2022-11-20T10:49:05.536Z,7.70
2022-11-20T10:52:30.519Z,9.03
2022-11-20T10:55:48.572Z,7.30
2022-11-20T10:59:16.547Z,6.77
2022-11-20T11:02:39.515Z,9.17
2022-11-20T11:06:03.513Z,7.13
2022-11-20T11:09:15.558Z,6.83
2022-11-20T11:12:40.526Z,6.30
2022-11-20T11:15:54.509Z,5.97
2022-11-20T11:19:28.607Z,6.25
2022-11-20T11:22:40.565Z,5.33
2022-11-20T11:25:52.568Z,6.50
2022-11-20T11:28:52.604Z,6.23
2022-11-20T11:32:19.636Z,5.40
2022-11-20T11:35:31.645Z,5.70
2022-11-20T11:38:55.593Z,8.40
2022-11-20T11:42:07.687Z,6.95
2022-11-20T11:45:31.727Z,6.10
2022-11-20T11:48:49.566Z,7.67
2022-11-20T11:52:11.707Z,6.70
2022-11-20T11:55:24.695Z,6.37
2022-11-20T11:58:57.673Z,6.53
2022-11-20T12:02:12.773Z,8.15
2022-11-20T12:05:42.701Z,5.83
2022-11-20T12:08:55.766Z,7.40
2022-11-20T12:12:19.752Z,8.63
2022-11-20T12:15:32.726Z,6.55
2022-11-20T12:18:47.788Z,5.73
2022-11-20T12:22:05.330Z,6.15
2022-11-20T12:25:32.748Z,5.83
2022-11-20T12:28:47.887Z,7.40
2022-11-20T12:32:14.779Z,6.60
2022-11-20T12:35:26.876Z,9.87
2022-11-20T12:38:58.818Z,7.40
2022-11-20T12:42:22.446Z,6.75
2022-11-20T12:45:50.896Z,7.43
2022-11-20T12:49:11.880Z,6.20
2022-11-20T12:52:41.910Z,5.47
2022-11-20T12:55:55.905Z,5.95
2022-11-20T12:59:21.279Z,6.13
2022-11-20T13:02:34.923Z,5.47
2022-11-20T13:06:01.932Z,6.73
2022-11-20T13:09:13.928Z,6.10
2022-11-20T13:12:39.941Z,6.47
2022-11-20T13:15:53.930Z,9.23
2022-11-20T13:19:17.922Z,8.23
2022-11-20T13:22:30.007Z,8.77
2022-11-20T13:25:54.984Z,6.00
2022-11-20T13:29:11.961Z,8.20
2022-11-20T13:32:38.054Z,7.27
2022-11-20T13:35:51.011Z,8.83
2022-11-20T13:39:15.019Z,6.43
2022-11-20T13:42:26.984Z,6.13
2022-11-20T13:45:53.064Z,7.17
2022-11-20T13:49:05.008Z,6.67
2022-11-20T13:52:30.105Z,6.47
2022-11-20T13:55:43.058Z,7.55
2022-11-20T13:59:14.577Z,8.37
2022-11-20T14:02:22.043Z,7.50
2022-11-20T14:05:46.179Z,7.50
2022-11-20T14:08:58.180Z,8.73
2022-11-20T14:12:23.150Z,8.93
2022-11-20T14:15:48.139Z,9.35
2022-11-20T14:19:14.192Z,8.35
2022-11-20T14:22:33.119Z,7.40
2022-11-20T14:25:57.181Z,8.40
2022-11-20T14:29:09.150Z,7.47
2022-11-20T14:32:34.135Z,7.93
2022-11-20T14:35:48.340Z,8.30
2022-11-20T14:39:12.238Z,11.43
2022-11-20T14:42:25.194Z,8.53
2022-11-20T14:45:50.231Z,10.03
2022-11-20T14:49:03.255Z,9.80
2022-11-20T14:52:29.231Z,8.33
2022-11-20T14:55:41.234Z,8.27
2022-11-20T14:58:54.280Z,8.03
2022-11-20T15:02:06.269Z,7.80
2022-11-20T15:05:19.259Z,9.45
2022-11-20T15:08:33.317Z,10.03
2022-11-20T15:11:57.294Z,11.40
2022-11-20T15:15:09.371Z,9.90
2022-11-20T15:18:36.282Z,9.85
2022-11-20T15:21:48.337Z,10.07
2022-11-20T15:25:14.358Z,9.40
2022-11-20T15:28:14.303Z,9.37
2022-11-20T15:31:38.339Z,9.70
2022-11-20T15:34:52.334Z,11.13
2022-11-20T15:38:07.394Z,11.10
2022-11-20T15:41:21.410Z,11.37
2022-11-20T15:44:36.421Z,14.20
2022-11-20T15:47:48.407Z,10.70
2022-11-20T15:51:13.441Z,8.97
2022-11-20T15:54:25.793Z,10.07
2022-11-20T15:57:53.475Z,10.87
2022-11-20T16:00:53.437Z,10.20
2022-11-20T16:04:18.484Z,9.95
2022-11-20T16:07:30.588Z,10.40
2022-11-20T16:10:43.527Z,13.07
2022-11-20T16:14:03.327Z,10.30
2022-11-20T16:17:27.464Z,12.10
2022-11-20T16:20:27.461Z,12.20
2022-11-20T16:23:39.497Z,10.07
2022-11-20T16:26:39.566Z,10.47
2022-11-20T16:30:05.578Z,10.10
2022-11-20T16:33:05.558Z,13.50
2022-11-20T16:36:33.545Z,13.35
2022-11-20T16:39:33.548Z,11.45
2022-11-20T16:42:57.575Z,11.65
2022-11-20T16:46:11.538Z,11.47
2022-11-20T16:49:38.582Z,12.07
2022-11-20T16:52:38.559Z,14.33
2022-11-20T16:55:50.711Z,13.17
2022-11-20T16:58:53.578Z,12.00
2022-11-20T17:02:19.603Z,14.05
2022-11-20T17:05:20.617Z,11.73
2022-11-20T17:08:32.685Z,12.13
2022-11-20T17:11:47.628Z,13.20
2022-11-20T17:15:02.645Z,13.43
2022-11-20T17:18:16.702Z,12.07
2022-11-20T17:21:42.750Z,12.33
2022-11-20T17:24:42.727Z,10.65
2022-11-20T17:27:58.763Z,10.73
2022-11-20T17:30:58.715Z,12.47
2022-11-20T17:34:25.058Z,10.80
2022-11-20T17:37:36.719Z,11.97
2022-11-20T17:40:48.790Z,11.33
2022-11-20T17:44:00.797Z,14.75
2022-11-20T17:47:12.776Z,15.73
2022-11-20T17:50:25.754Z,14.57
2022-11-20T17:53:37.822Z,15.03
2022-11-20T17:56:55.216Z,13.93
2022-11-20T18:00:07.819Z,14.53
2022-11-20T18:03:19.787Z,12.05
2022-11-20T18:06:36.834Z,13.13
2022-11-20T18:09:48.881Z,14.43
2022-11-20T18:12:48.858Z,16.77
2022-11-20T18:16:03.852Z,14.47
2022-11-20T18:19:17.795Z,15.00
2022-11-20T18:22:43.857Z,12.17
2022-11-20T18:25:43.858Z,15.13
2022-11-20T18:28:55.887Z,14.63
2022-11-20T18:32:07.883Z,13.77
2022-11-20T18:35:21.933Z,13.50
2022-11-20T18:38:35.960Z,11.70
2022-11-20T18:41:53.760Z,12.70
2022-11-20T18:45:06.944Z,14.70
2022-11-20T18:48:19.045Z,14.13
2022-11-20T18:51:30.931Z,13.90
2022-11-20T18:54:55.959Z,14.00
2022-11-20T18:57:56.043Z,16.65
2022-11-20T19:01:08.086Z,15.65
2022-11-20T19:04:07.962Z,14.10
2022-11-20T19:07:32.093Z,13.73
2022-11-20T19:10:46.004Z,11.90
2022-11-20T19:14:10.017Z,12.20
2022-11-20T19:17:10.052Z,13.45
2022-11-20T19:20:37.061Z,14.45
2022-11-20T19:23:37.047Z,14.25
2022-11-20T19:27:04.117Z,14.77
2022-11-20T19:30:04.051Z,18.57
2022-11-20T19:33:17.122Z,13.20
2022-11-20T19:36:35.111Z,12.33
2022-11-20T19:39:48.183Z,14.00
2022-11-20T19:43:01.079Z,12.20
2022-11-20T19:46:26.162Z,11.50
2022-11-20T19:49:38.129Z,13.10
2022-11-20T19:52:53.232Z,12.03
2022-11-20T19:56:02.121Z,12.77
2022-11-20T19:59:28.202Z,12.90
2022-11-20T20:02:28.201Z,14.30
2022-11-20T20:05:40.190Z,13.05
2022-11-20T20:08:40.168Z,14.30
2022-11-20T20:12:05.218Z,12.43
2022-11-20T20:15:19.234Z,13.77
2022-11-20T20:18:43.263Z,14.47
2022-11-20T20:21:55.279Z,13.70
2022-11-20T20:25:08.347Z,15.53
2022-11-20T20:28:20.274Z,11.83
2022-11-20T20:31:46.331Z,13.77
2022-11-20T20:34:46.241Z,15.80
2022-11-20T20:37:58.261Z,11.60
2022-11-20T20:41:13.283Z,11.95
2022-11-20T20:44:30.867Z,15.43
2022-11-20T20:47:44.318Z,12.65
2022-11-20T20:51:08.324Z,16.13
2022-11-20T20:54:23.376Z,16.17
2022-11-20T20:57:47.329Z,15.23
2022-11-20T21:00:47.368Z,14.90
2022-11-20T21:04:13.397Z,13.00
2022-11-20T21:07:13.528Z,14.10
2022-11-20T21:10:25.416Z,14.25
2022-11-20T21:13:25.440Z,13.90
2022-11-20T21:16:38.415Z,13.90
2022-11-20T21:19:52.450Z,13.45
2022-11-20T21:22:53.042Z,14.45
2022-11-20T21:25:53.411Z,12.27
2022-11-20T21:29:06.463Z,13.77
2022-11-20T21:32:18.441Z,13.20
2022-11-20T21:35:44.515Z,12.83
2022-11-20T21:38:44.538Z,15.50
2022-11-20T21:42:08.484Z,13.60
2022-11-20T21:45:08.420Z,12.33
2022-11-20T21:48:20.555Z,11.10
2022-11-20T21:51:37.555Z,15.17
2022-11-20T21:54:49.554Z,13.40
2022-11-20T21:57:49.529Z,13.00
2022-11-20T22:01:14.634Z,16.15
2022-11-20T22:04:28.595Z,11.40
2022-11-20T22:07:41.626Z,13.83
2022-11-20T22:10:53.582Z,14.30
2022-11-20T22:14:11.154Z,11.37
2022-11-20T22:17:40.635Z,11.87
2022-11-20T22:21:04.677Z,13.53
2022-11-20T22:24:31.663Z,13.13
2022-11-20T22:27:31.639Z,11.40
2022-11-20T22:30:44.628Z,13.43
2022-11-20T22:33:56.646Z,11.23
2022-11-20T22:37:11.696Z,12.67
2022-11-20T22:40:25.689Z,15.15
2022-11-20T22:43:38.705Z,12.75
2022-11-20T22:46:54.169Z,11.55
2022-11-20T22:50:06.686Z,12.10
2022-11-20T22:53:06.761Z,12.05
2022-11-20T22:56:32.697Z,12.50
2022-11-20T22:59:32.779Z,12.53
2022-11-20T23:02:44.806Z,11.73
2022-11-20T23:05:56.818Z,10.73
2022-11-20T23:09:20.819Z,11.70
2022-11-20T23:12:34.791Z,12.30
2022-11-20T23:15:48.841Z,12.07
2022-11-20T23:19:00.868Z,10.70
2022-11-20T23:22:14.760Z,11.03
2022-11-20T23:25:26.824Z,12.00
2022-11-20T23:28:51.848Z,10.73
2022-11-20T23:31:51.856Z,12.80
2022-11-20T23:35:06.840Z,11.57
2022-11-20T23:38:06.874Z,11.73
2022-11-20T23:41:30.930Z,11.15
2022-11-20T23:44:44.916Z,11.03
2022-11-20T23:47:56.914Z,10.93
2022-11-20T23:51:08.847Z,13.67
2022-11-20T23:54:20.937Z,10.80
2022-11-20T23:57:20.858Z,12.57
